createdAt,value
2019-03-30T00:00:41.051Z,15.40
2019-03-30T00:03:10.416Z,15.83
2019-03-30T00:05:39.533Z,16.27
2019-03-30T00:08:09.029Z,16.93
2019-03-30T00:10:38.371Z,16.47
2019-03-30T00:13:07.449Z,15.87
2019-03-30T00:15:36.545Z,16.67
2019-03-30T00:18:05.736Z,17.80
2019-03-30T00:20:35.106Z,16.00
2019-03-30T00:23:04.179Z,16.63
2019-03-30T00:25:33.694Z,16.33
2019-03-30T00:28:03.156Z,16.10
2019-03-30T00:30:32.233Z,16.80
2019-03-30T00:33:01.323Z,16.27
2019-03-30T00:35:30.413Z,17.40
2019-03-30T00:38:00.231Z,16.80
2019-03-30T00:40:29.627Z,16.03
2019-03-30T00:42:58.724Z,14.50
2019-03-30T00:45:28.129Z,16.47
2019-03-30T00:47:57.480Z,15.70
2019-03-30T00:50:26.587Z,16.80
2019-03-30T00:52:55.714Z,16.87
2019-03-30T00:55:25.176Z,16.13
2019-03-30T00:57:54.513Z,16.53
2019-03-30T01:00:24.117Z,17.17
2019-03-30T01:02:53.473Z,16.40
2019-03-30T01:05:22.851Z,17.67
2019-03-30T01:07:52.199Z,17.63
2019-03-30T01:10:21.534Z,17.67
2019-03-30T01:12:50.865Z,17.10
2019-03-30T01:15:19.950Z,17.57
2019-03-30T01:17:49.070Z,17.37
2019-03-30T01:20:18.193Z,17.03
2019-03-30T01:22:47.296Z,16.93
2019-03-30T01:25:16.633Z,16.43
2019-03-30T01:27:46.010Z,17.33
2019-03-30T01:30:22.899Z,17.30
2019-03-30T01:32:46.665Z,16.97
2019-03-30T01:35:16.197Z,17.53
2019-03-30T01:37:45.448Z,17.67
2019-03-30T01:40:14.789Z,17.03
2019-03-30T01:42:43.877Z,17.80
2019-03-30T01:45:13.383Z,17.93
2019-03-30T01:47:42.490Z,17.97
2019-03-30T01:50:17.703Z,20.13
2019-03-30T01:52:42.481Z,17.90
2019-03-30T01:55:11.671Z,18.83
2019-03-30T01:57:41.045Z,18.73
2019-03-30T02:00:10.669Z,18.97
2019-03-30T02:02:40.143Z,17.50
2019-03-30T02:05:09.853Z,18.33
2019-03-30T02:07:39.262Z,18.77
2019-03-30T02:10:10.096Z,17.77
2019-03-30T02:12:39.193Z,18.20
2019-03-30T02:15:08.824Z,17.93
2019-03-30T02:17:38.189Z,19.73
2019-03-30T02:20:08.834Z,19.23
2019-03-30T02:22:38.230Z,18.60
2019-03-30T02:25:08.532Z,19.70
2019-03-30T02:27:37.919Z,21.07
2019-03-30T02:30:07.370Z,21.23
2019-03-30T02:32:36.532Z,19.53
2019-03-30T02:35:07.757Z,19.77
2019-03-30T02:37:36.888Z,19.57
2019-03-30T02:40:07.760Z,19.33
2019-03-30T02:42:36.852Z,20.10
2019-03-30T02:45:07.244Z,18.87
2019-03-30T02:47:36.366Z,20.50
2019-03-30T02:50:06.629Z,20.83
2019-03-30T02:52:35.717Z,22.37
2019-03-30T02:55:07.117Z,22.87
2019-03-30T02:57:36.449Z,20.43
2019-03-30T03:00:07.841Z,21.53
2019-03-30T03:02:37.212Z,20.97
2019-03-30T03:05:08.065Z,20.17
2019-03-30T03:07:37.389Z,21.10
2019-03-30T03:10:07.885Z,20.10
2019-03-30T03:12:37.213Z,20.37
2019-03-30T03:15:07.786Z,21.40
2019-03-30T03:17:37.631Z,20.57
2019-03-30T03:20:07.092Z,19.63
2019-03-30T03:22:36.202Z,19.93
2019-03-30T03:25:08.142Z,18.97
2019-03-30T03:27:37.507Z,20.03
2019-03-30T03:30:07.588Z,18.87
2019-03-30T03:32:36.693Z,19.07
2019-03-30T03:35:07.577Z,18.77
2019-03-30T03:37:45.688Z,19.67
2019-03-30T03:40:08.856Z,19.43
2019-03-30T03:42:37.949Z,19.30
2019-03-30T03:45:09.638Z,19.50
2019-03-30T03:47:38.722Z,19.93
2019-03-30T03:50:08.499Z,19.27
2019-03-30T03:52:38.492Z,19.27
2019-03-30T03:55:07.992Z,18.20
2019-03-30T03:57:40.265Z,19.87
2019-03-30T04:00:10.058Z,19.43
2019-03-30T04:02:39.308Z,19.27
2019-03-30T04:05:09.704Z,20.07
2019-03-30T04:07:40.429Z,20.03
2019-03-30T04:10:11.532Z,18.83
2019-03-30T04:12:44.005Z,19.93
2019-03-30T04:15:16.611Z,19.97
2019-03-30T04:17:45.795Z,18.80
2019-03-30T04:20:18.082Z,20.00
2019-03-30T04:22:47.214Z,18.30
2019-03-30T04:25:16.601Z,18.80
2019-03-30T04:27:46.060Z,20.03
2019-03-30T04:30:15.254Z,18.27
2019-03-30T04:32:44.554Z,18.90
2019-03-30T04:35:13.657Z,19.17
2019-03-30T04:37:43.002Z,19.30
2019-03-30T04:40:12.628Z,18.40
2019-03-30T04:42:41.721Z,19.80
2019-03-30T04:45:11.155Z,20.20
2019-03-30T04:47:40.240Z,19.33
2019-03-30T04:50:09.869Z,18.10
2019-03-30T04:52:39.206Z,19.37
2019-03-30T04:55:08.281Z,18.57
2019-03-30T04:57:37.629Z,18.27
2019-03-30T05:00:08.619Z,18.40
2019-03-30T05:02:38.321Z,20.10
2019-03-30T05:05:08.614Z,20.00
2019-03-30T05:07:38.156Z,18.67
2019-03-30T05:10:09.037Z,17.63
2019-03-30T05:12:38.477Z,18.30
2019-03-30T05:15:07.634Z,18.80
2019-03-30T05:17:46.952Z,17.83
2019-03-30T05:20:07.632Z,16.77
2019-03-30T05:22:36.749Z,18.30
2019-03-30T05:25:06.936Z,16.87
2019-03-30T05:27:36.279Z,17.33
2019-03-30T05:30:07.561Z,16.13
2019-03-30T05:32:36.717Z,16.07
2019-03-30T05:35:08.196Z,16.20
2019-03-30T05:37:37.336Z,16.57
2019-03-30T05:40:08.613Z,15.90
2019-03-30T05:42:37.737Z,15.67
2019-03-30T05:45:07.726Z,15.83
2019-03-30T05:47:36.829Z,15.80
2019-03-30T05:50:07.082Z,14.67
2019-03-30T05:52:36.214Z,15.60
2019-03-30T05:55:05.444Z,16.50
2019-03-30T05:57:34.807Z,14.83
2019-03-30T06:00:06.355Z,15.87
2019-03-30T06:02:35.467Z,16.63
2019-03-30T06:05:05.794Z,15.63
2019-03-30T06:07:35.173Z,15.17
2019-03-30T06:10:06.646Z,15.53
2019-03-30T06:12:35.748Z,14.50
2019-03-30T06:15:07.770Z,15.50
2019-03-30T06:17:37.105Z,14.53
2019-03-30T06:20:09.086Z,13.60
2019-03-30T06:22:40.545Z,14.37
2019-03-30T06:25:09.002Z,14.10
2019-03-30T06:27:38.140Z,13.87
2019-03-30T06:30:23.097Z,13.27
2019-03-30T06:32:52.241Z,13.50
2019-03-30T06:35:21.397Z,11.80
2019-03-30T06:37:50.501Z,12.53
2019-03-30T06:40:19.898Z,12.97
2019-03-30T06:42:49.037Z,12.73
2019-03-30T06:45:18.372Z,11.80
2019-03-30T06:47:47.757Z,11.73
2019-03-30T06:50:17.222Z,11.43
2019-03-30T06:52:57.277Z,11.50
2019-03-30T06:55:24.402Z,12.70
2019-03-30T06:57:53.780Z,11.90
2019-03-30T07:00:33.985Z,11.67
2019-03-30T07:03:05.100Z,11.90
2019-03-30T07:05:42.605Z,12.07
2019-03-30T07:08:17.232Z,10.83
2019-03-30T07:10:48.305Z,12.17
2019-03-30T07:13:17.612Z,12.80
2019-03-30T07:15:49.175Z,12.13
2019-03-30T07:18:19.434Z,11.33
2019-03-30T07:20:48.803Z,12.07
2019-03-30T07:23:17.924Z,11.60
2019-03-30T07:25:47.367Z,12.03
2019-03-30T07:28:16.518Z,11.90
2019-03-30T07:30:45.562Z,12.20
2019-03-30T07:33:14.917Z,12.80
2019-03-30T07:35:44.067Z,12.60
2019-03-30T07:38:13.470Z,11.27
2019-03-30T07:40:42.808Z,11.77
2019-03-30T07:43:11.908Z,12.47
2019-03-30T07:45:41.737Z,12.40
2019-03-30T07:48:11.199Z,12.40
2019-03-30T07:50:40.284Z,12.37
2019-03-30T07:53:09.427Z,12.80
2019-03-30T07:55:38.545Z,12.30
2019-03-30T07:58:07.922Z,12.93
2019-03-30T08:00:37.419Z,12.93
2019-03-30T08:03:08.223Z,12.10
2019-03-30T08:05:38.187Z,12.63
2019-03-30T08:08:07.692Z,12.00
2019-03-30T08:10:38.205Z,12.10
2019-03-30T08:13:07.317Z,13.03
2019-03-30T08:15:38.295Z,12.33
2019-03-30T08:18:07.653Z,11.70
2019-03-30T08:20:36.745Z,12.03
2019-03-30T08:23:11.434Z,12.30
2019-03-30T08:25:40.640Z,12.20
2019-03-30T08:28:10.319Z,11.13
2019-03-30T08:30:39.459Z,12.70
2019-03-30T08:33:08.560Z,12.93
2019-03-30T08:35:38.006Z,11.83
2019-03-30T08:38:07.110Z,12.07
2019-03-30T08:40:36.507Z,12.80
2019-03-30T08:43:05.607Z,11.07
2019-03-30T08:45:34.993Z,10.90
2019-03-30T08:48:04.072Z,10.57
2019-03-30T08:50:33.288Z,11.63
2019-03-30T08:53:02.817Z,11.77
2019-03-30T08:55:32.162Z,10.33
2019-03-30T08:58:01.285Z,9.87
2019-03-30T09:00:39.424Z,10.83
2019-03-30T09:03:08.873Z,10.27
2019-03-30T09:05:38.323Z,10.40
2019-03-30T09:08:07.506Z,10.53
2019-03-30T09:10:43.700Z,10.03
2019-03-30T09:13:13.058Z,10.90
2019-03-30T09:15:42.441Z,10.70
2019-03-30T09:18:11.526Z,11.30
2019-03-30T09:20:40.965Z,11.63
2019-03-30T09:23:10.089Z,11.03
2019-03-30T09:25:39.180Z,10.80
2019-03-30T09:28:08.322Z,11.70
2019-03-30T09:30:37.503Z,9.93
2019-03-30T09:33:07.741Z,11.27
2019-03-30T09:35:37.200Z,11.37
2019-03-30T09:38:06.522Z,11.83
2019-03-30T09:40:37.654Z,11.07
2019-03-30T09:43:08.674Z,10.73
2019-03-30T09:45:38.142Z,11.27
2019-03-30T09:48:07.266Z,10.93
2019-03-30T09:50:36.372Z,11.10
2019-03-30T09:53:05.472Z,12.27
2019-03-30T09:55:34.939Z,10.57
2019-03-30T09:58:04.238Z,10.43
2019-03-30T10:00:36.788Z,9.57
2019-03-30T10:03:07.458Z,10.73
2019-03-30T10:05:37.131Z,11.63
2019-03-30T10:08:06.245Z,11.23
2019-03-30T10:10:35.651Z,10.53
2019-03-30T10:13:05.853Z,11.17
2019-03-30T10:15:34.997Z,12.37
2019-03-30T10:18:04.087Z,10.03
2019-03-30T10:20:33.522Z,10.47
2019-03-30T10:23:02.727Z,10.97
2019-03-30T10:25:31.930Z,9.37
2019-03-30T10:28:01.044Z,10.23
2019-03-30T10:30:30.139Z,10.20
2019-03-30T10:33:02.671Z,10.23
2019-03-30T10:35:33.204Z,10.47
2019-03-30T10:38:02.544Z,9.93
2019-03-30T10:40:31.800Z,9.33
2019-03-30T10:43:01.847Z,10.47
2019-03-30T10:45:31.227Z,9.87
2019-03-30T10:48:05.558Z,8.90
2019-03-30T10:50:34.763Z,10.07
2019-03-30T10:53:04.349Z,9.87
2019-03-30T10:55:33.783Z,11.10
2019-03-30T10:58:03.226Z,10.67
2019-03-30T11:00:37.480Z,11.53
2019-03-30T11:03:07.659Z,11.40
2019-03-30T11:05:37.014Z,10.77
2019-03-30T11:08:07.428Z,11.30
2019-03-30T11:10:39.130Z,11.93
2019-03-30T11:13:09.432Z,12.17
2019-03-30T11:15:39.283Z,12.10
2019-03-30T11:18:11.079Z,11.03
2019-03-30T11:20:41.761Z,10.90
2019-03-30T11:23:22.945Z,10.67
2019-03-30T11:25:52.450Z,9.93
2019-03-30T11:28:21.817Z,9.17
2019-03-30T11:30:50.924Z,9.13
2019-03-30T11:33:20.286Z,10.13
2019-03-30T11:35:49.639Z,10.50
2019-03-30T11:38:18.978Z,10.30
2019-03-30T11:40:48.347Z,10.43
2019-03-30T11:43:17.469Z,9.67
2019-03-30T11:45:46.806Z,10.40
2019-03-30T11:48:16.261Z,10.83
2019-03-30T11:50:45.823Z,10.77
2019-03-30T11:53:15.195Z,11.43
2019-03-30T11:55:44.287Z,10.37
2019-03-30T11:58:13.482Z,11.20
2019-03-30T12:00:42.586Z,11.30
2019-03-30T12:03:11.765Z,10.80
2019-03-30T12:05:41.030Z,10.93
2019-03-30T12:08:10.452Z,12.20
2019-03-30T12:10:40.029Z,11.90
2019-03-30T12:13:12.036Z,10.93
2019-03-30T12:15:41.127Z,11.03
2019-03-30T12:18:10.487Z,11.50
2019-03-30T12:20:39.830Z,11.43
2019-03-30T12:23:09.202Z,11.00
2019-03-30T12:25:38.273Z,11.77
2019-03-30T12:28:07.682Z,12.43
2019-03-30T12:30:37.051Z,11.07
2019-03-30T12:33:06.164Z,11.77
2019-03-30T12:35:35.514Z,9.63
2019-03-30T12:38:04.743Z,10.63
2019-03-30T12:40:34.083Z,11.10
2019-03-30T12:43:03.180Z,11.30
2019-03-30T12:45:32.314Z,11.23
2019-03-30T12:48:01.691Z,11.80
2019-03-30T12:50:30.793Z,12.17
2019-03-30T12:53:00.071Z,11.63
2019-03-30T12:55:29.521Z,11.63
2019-03-30T12:57:58.634Z,11.67
2019-03-30T13:00:27.854Z,11.83
2019-03-30T13:02:56.982Z,11.40
2019-03-30T13:05:26.869Z,11.37
2019-03-30T13:07:56.226Z,10.83
2019-03-30T13:10:25.424Z,11.30
2019-03-30T13:12:54.504Z,10.93
2019-03-30T13:15:23.926Z,12.07
2019-03-30T13:17:53.013Z,9.83
2019-03-30T13:20:22.360Z,10.93
2019-03-30T13:22:51.755Z,10.37
2019-03-30T13:25:20.855Z,10.67
2019-03-30T13:27:53.257Z,11.37
2019-03-30T13:30:21.599Z,11.40
2019-03-30T13:32:53.411Z,10.03
2019-03-30T13:35:21.765Z,10.03
2019-03-30T13:37:51.255Z,10.90
2019-03-30T13:40:20.662Z,10.60
2019-03-30T13:42:49.777Z,11.03
2019-03-30T13:45:19.126Z,10.20
2019-03-30T13:47:48.574Z,10.97
2019-03-30T13:50:17.677Z,11.60
2019-03-30T13:52:46.794Z,9.07
2019-03-30T13:55:16.005Z,10.67
2019-03-30T13:57:45.424Z,10.20
2019-03-30T14:00:15.199Z,10.17
2019-03-30T14:02:44.442Z,11.20
2019-03-30T14:05:14.029Z,11.33
2019-03-30T14:07:43.401Z,10.83
2019-03-30T14:10:13.012Z,9.33
2019-03-30T14:12:42.129Z,10.07
2019-03-30T14:15:11.566Z,10.37
2019-03-30T14:17:40.680Z,9.57
2019-03-30T14:20:10.438Z,10.73
2019-03-30T14:22:39.525Z,10.17
2019-03-30T14:25:08.747Z,9.60
2019-03-30T14:27:37.828Z,10.60
2019-03-30T14:30:09.991Z,9.43
2019-03-30T14:32:39.075Z,8.90
2019-03-30T14:35:08.554Z,9.93
2019-03-30T14:37:38.000Z,9.37
2019-03-30T14:40:08.914Z,8.10
2019-03-30T14:42:38.293Z,8.17
2019-03-30T14:45:09.070Z,7.63
2019-03-30T14:47:38.182Z,7.23
2019-03-30T14:50:08.366Z,8.10
2019-03-30T14:52:37.461Z,8.33
2019-03-30T14:55:09.766Z,7.97
2019-03-30T14:57:39.202Z,7.30
2019-03-30T15:00:12.063Z,6.27
2019-03-30T15:02:41.208Z,7.00
2019-03-30T15:05:10.799Z,8.23
2019-03-30T15:07:40.134Z,7.10
2019-03-30T15:10:10.738Z,7.97
2019-03-30T15:12:39.826Z,6.87
2019-03-30T15:15:11.389Z,7.50
2019-03-30T15:17:41.271Z,9.07
2019-03-30T15:20:12.134Z,7.50
2019-03-30T15:22:41.506Z,6.27
2019-03-30T15:25:11.057Z,7.87
2019-03-30T15:27:40.135Z,8.80
2019-03-30T15:30:10.012Z,8.80
2019-03-30T15:32:39.376Z,9.57
2019-03-30T15:35:09.654Z,7.50
2019-03-30T15:37:39.154Z,8.47
2019-03-30T15:40:08.814Z,7.97
2019-03-30T15:42:40.373Z,8.20
2019-03-30T15:45:13.671Z,8.53
2019-03-30T15:47:43.913Z,8.97
2019-03-30T15:50:14.917Z,8.37
2019-03-30T15:52:44.091Z,7.93
2019-03-30T15:55:16.515Z,9.10
2019-03-30T15:57:49.295Z,8.93
2019-03-30T16:00:19.136Z,8.93
2019-03-30T16:02:48.322Z,8.10
2019-03-30T16:05:17.735Z,8.47
2019-03-30T16:07:46.870Z,8.70
2019-03-30T16:10:16.336Z,8.27
2019-03-30T16:12:45.459Z,9.17
2019-03-30T16:15:15.148Z,8.33
2019-03-30T16:17:44.491Z,9.00
2019-03-30T16:20:14.712Z,8.30
2019-03-30T16:22:44.389Z,9.77
2019-03-30T16:25:13.505Z,8.83
2019-03-30T16:27:42.879Z,8.47
2019-03-30T16:30:12.746Z,8.17
2019-03-30T16:32:41.852Z,7.77
2019-03-30T16:35:11.644Z,8.30
2019-03-30T16:37:40.999Z,8.30
2019-03-30T16:40:10.951Z,8.53
2019-03-30T16:42:40.336Z,8.70
2019-03-30T16:45:10.010Z,10.47
2019-03-30T16:47:39.407Z,8.77
2019-03-30T16:50:09.762Z,8.80
2019-03-30T16:52:41.122Z,10.70
2019-03-30T16:55:10.780Z,9.20
2019-03-30T16:57:43.480Z,8.87
2019-03-30T17:00:11.415Z,8.60
2019-03-30T17:02:40.819Z,9.33
2019-03-30T17:05:10.292Z,9.27
2019-03-30T17:07:39.688Z,8.87
2019-03-30T17:10:10.168Z,8.83
2019-03-30T17:12:39.264Z,8.80
2019-03-30T17:15:08.561Z,7.87
2019-03-30T17:17:37.665Z,8.17
2019-03-30T17:20:08.662Z,8.50
2019-03-30T17:22:37.790Z,8.37
2019-03-30T17:25:07.563Z,8.63
2019-03-30T17:27:37.459Z,9.77
2019-03-30T17:30:08.404Z,9.23
2019-03-30T17:32:37.869Z,9.77
2019-03-30T17:35:07.459Z,10.27
2019-03-30T17:37:36.923Z,9.67
2019-03-30T17:40:10.913Z,9.70
2019-03-30T17:42:40.020Z,10.20
2019-03-30T17:45:09.866Z,9.07
2019-03-30T17:47:38.973Z,8.57
2019-03-30T17:50:08.605Z,9.97
2019-03-30T17:52:38.064Z,9.07
2019-03-30T17:55:07.217Z,9.03
2019-03-30T17:57:36.561Z,9.57
2019-03-30T18:00:12.237Z,10.27
2019-03-30T18:02:41.369Z,9.40
2019-03-30T18:05:10.998Z,10.03
2019-03-30T18:07:40.434Z,10.77
2019-03-30T18:10:10.869Z,10.23
2019-03-30T18:12:39.989Z,9.67
2019-03-30T18:15:09.645Z,10.17
2019-03-30T18:17:38.734Z,9.40
2019-03-30T18:20:08.382Z,9.73
2019-03-30T18:22:37.524Z,9.97
2019-03-30T18:25:08.143Z,9.23
2019-03-30T18:27:37.488Z,9.23
2019-03-30T18:30:07.379Z,9.57
2019-03-30T18:32:36.569Z,9.97
2019-03-30T18:35:09.421Z,10.63
2019-03-30T18:37:39.469Z,10.27
2019-03-30T18:40:09.217Z,9.17
2019-03-30T18:42:38.346Z,9.83
2019-03-30T18:45:11.505Z,10.17
2019-03-30T18:47:40.612Z,9.80
2019-03-30T18:50:10.368Z,10.63
2019-03-30T18:52:39.798Z,10.23
2019-03-30T18:55:10.757Z,10.63
2019-03-30T18:57:40.131Z,11.93
2019-03-30T19:00:09.642Z,12.10
2019-03-30T19:02:38.720Z,12.53
2019-03-30T19:05:08.163Z,13.10
2019-03-30T19:07:37.532Z,12.80
2019-03-30T19:10:06.636Z,11.73
2019-03-30T19:12:35.760Z,13.07
2019-03-30T19:15:06.170Z,13.40
2019-03-30T19:17:35.287Z,12.13
2019-03-30T19:20:08.878Z,13.70
2019-03-30T19:22:38.246Z,13.47
2019-03-30T19:25:10.113Z,13.67
2019-03-30T19:27:39.217Z,14.03
2019-03-30T19:30:09.724Z,14.20
2019-03-30T19:32:39.090Z,12.87
2019-03-30T19:35:09.111Z,12.70
2019-03-30T19:37:38.479Z,13.23
2019-03-30T19:40:07.886Z,13.60
2019-03-30T19:42:37.254Z,11.23
2019-03-30T19:45:09.233Z,12.70
2019-03-30T19:47:38.580Z,12.57
2019-03-30T19:50:07.994Z,13.47
2019-03-30T19:52:40.109Z,12.33
2019-03-30T19:55:07.982Z,12.53
2019-03-30T19:57:37.373Z,13.53
2019-03-30T20:00:11.149Z,12.80
2019-03-30T20:02:40.525Z,13.00
2019-03-30T20:05:10.396Z,12.27
2019-03-30T20:07:39.791Z,14.03
2019-03-30T20:10:09.755Z,12.93
2019-03-30T20:12:39.423Z,13.33
2019-03-30T20:15:08.776Z,14.03
2019-03-30T20:17:38.039Z,13.47
2019-03-30T20:20:07.494Z,12.97
2019-03-30T20:22:36.670Z,12.67
2019-03-30T20:25:09.518Z,13.17
2019-03-30T20:27:38.741Z,13.07
2019-03-30T20:30:09.832Z,12.80
2019-03-30T20:32:39.044Z,13.67
2019-03-30T20:35:09.514Z,14.13
2019-03-30T20:37:38.765Z,14.27
2019-03-30T20:40:10.332Z,14.07
2019-03-30T20:42:39.493Z,13.93
2019-03-30T20:45:10.195Z,14.83
2019-03-30T20:47:39.382Z,14.83
2019-03-30T20:50:09.351Z,13.87
2019-03-30T20:52:38.586Z,15.47
2019-03-30T20:55:08.246Z,14.80
2019-03-30T20:57:37.450Z,14.37
2019-03-30T21:00:13.512Z,15.27
2019-03-30T21:02:42.927Z,15.00
2019-03-30T21:05:12.700Z,16.10
2019-03-30T21:07:41.985Z,16.07
2019-03-30T21:10:13.074Z,16.27
2019-03-30T21:12:42.287Z,15.53
2019-03-30T21:15:12.165Z,17.20
2019-03-30T21:17:41.663Z,16.03
2019-03-30T21:20:11.153Z,16.33
2019-03-30T21:22:40.583Z,17.47
2019-03-30T21:25:10.025Z,16.83
2019-03-30T21:27:39.274Z,16.40
2019-03-30T21:30:10.918Z,17.00
2019-03-30T21:32:40.155Z,16.93
2019-03-30T21:35:09.900Z,16.83
2019-03-30T21:37:39.294Z,16.83
2019-03-30T21:40:08.832Z,16.67
2019-03-30T21:42:38.003Z,16.00
2019-03-30T21:45:08.746Z,16.93
2019-03-30T21:47:38.227Z,16.73
2019-03-30T21:50:09.103Z,16.13
2019-03-30T21:52:38.538Z,17.13
2019-03-30T21:55:07.990Z,17.33
2019-03-30T21:57:37.391Z,18.83
2019-03-30T22:00:10.371Z,19.73
2019-03-30T22:02:38.794Z,19.73
2019-03-30T22:05:09.268Z,20.80
2019-03-30T22:07:38.467Z,20.73
2019-03-30T22:10:09.842Z,24.70
2019-03-30T22:12:41.700Z,26.60
2019-03-30T22:15:11.098Z,27.90
2019-03-30T22:17:40.534Z,33.13
2019-03-30T22:20:10.414Z,32.40
2019-03-30T22:22:39.875Z,30.13
2019-03-30T22:25:09.502Z,33.20
2019-03-30T22:27:38.922Z,32.33
2019-03-30T22:30:23.638Z,32.03
2019-03-30T22:32:39.895Z,31.33
2019-03-30T22:35:09.609Z,30.90
2019-03-30T22:37:39.105Z,30.07
2019-03-30T22:40:09.403Z,28.10
2019-03-30T22:42:39.122Z,27.37
2019-03-30T22:45:08.962Z,27.33
2019-03-30T22:47:44.309Z,23.57
2019-03-30T22:50:16.025Z,23.27
2019-03-30T22:52:45.886Z,24.50
2019-03-30T22:55:16.758Z,23.37
2019-03-30T22:57:47.214Z,23.30
2019-03-30T23:00:21.988Z,22.10
2019-03-30T23:02:51.380Z,22.67
2019-03-30T23:05:20.997Z,22.13
2019-03-30T23:07:50.394Z,21.77
2019-03-30T23:10:19.972Z,21.47
2019-03-30T23:12:49.302Z,21.57
2019-03-30T23:15:18.706Z,21.60
2019-03-30T23:17:47.904Z,20.07
2019-03-30T23:20:17.407Z,19.60
2019-03-30T23:22:46.939Z,20.50
2019-03-30T23:25:16.320Z,20.33
2019-03-30T23:27:45.816Z,19.77
2019-03-30T23:30:15.646Z,19.87
2019-03-30T23:32:44.943Z,19.40
2019-03-30T23:35:14.547Z,19.60
2019-03-30T23:37:43.857Z,19.50
2019-03-30T23:40:13.155Z,20.80
2019-03-30T23:42:42.548Z,19.77
2019-03-30T23:45:12.270Z,20.67
2019-03-30T23:47:41.762Z,19.83
2019-03-30T23:50:13.013Z,22.33
2019-03-30T23:52:42.326Z,23.43
2019-03-30T23:55:12.143Z,23.43
2019-03-30T23:57:41.951Z,24.93
